Tiempo atmosférico en la estación meteorológica de La Molina, Girona (1704 m.)



Fecha
DESCASC
Temp. máxima en grados centígrados (hora)
DESCASC
Temp. mínima en grados centígrados (hora)
DESCASC
Temp. media en grados centígrados
DESCASC
Racha de viento máxima en m/sg (hora)
DESCASC
Velocidad máxima media en intervalos de 10 minutos(hora)
DESCASC
Precipitaciones diarias en mm
DESCASC
Precipitaciones de 00:00 a 06:00 en mm
DESCASC
Precipitaciones de 06:00 a 12:00 en mm
DESCASC
Precipitaciones de 12:00 a 18:00 en mm
DESCASC
Precipitaciones de 18:00 a 24:00 en mm
DESCASC
31-03-2020 4.8 (15:00) 0.3 (00:40) 2.6 9.17 (15:10) 5.28 (22:20) 4.2 0.2 0.6 0 3.4
30-03-2020 2.2 (00:00) -0.7 (20:30) 0.8 11.67 (11:40) 5.28 (11:40) 6.4 2.8 3 0.6 0
29-03-2020 10.2 (15:20) -0.3 (00:00) 4.9 8.61 (16:40) 3.61 (16:50) 0 0 0 0 0
28-03-2020 7.5 (13:20) 0 (00:00) 3.8 6.39 (12:50) 3.89 (14:10) 0 0 0 0 0
27-03-2020 4.1 (14:20) -7.5 (-00:0) -1.7 7.78 (06:10) 3.89 (06:10) 0 0 0 0 0
26-03-2020 0.3 (14:10) -7.5 (-00:0) -3.6 7.78 (12:40) 4.17 (12:40) 4.2 0.6 3.6 0 0
25-03-2020 2.2 (13:20) -5.1 (-00:0) -1.4 11.67 (09:10) 6.11 (04:50) 4.8 1.6 2 0.8 0.4
24-03-2020 8.8 (14:10) -1.8 (-00:0) 3.5 8.61 (16:30) 6.39 (16:40) 0 0 0 0 0
23-03-2020 4.7 (14:50) 0.5 (00:00) 2.6 7.5 (14:30) 3.89 (00:10) 0.8 0 0.4 0.4 0
22-03-2020 7.3 (16:40) 0.8 (06:00) 4.1 10.28 (12:00) 6.39 (13:50) 0 0 0 0 0
21-03-2020 10.2 (14:40) -1.6 (-00:0) 4.3 9.72 (16:20) 5.56 (17:10) 0 0 0 0 0
20-03-2020 9.9 (14:50) -1.4 (-00:0) 4.2 11.39 (16:10) 5 (15:20) 0 0 0 0 0
19-03-2020 11.8 (15:10) 0.8 (00:00) 6.3 10.28 (18:00) 5.83 (18:30) 0 0 0 0 0
18-03-2020 13 (14:50) 3.6 (00:00) 8.3 6.11 (15:40) 4.17 (15:40) 0 0 0 0 0
17-03-2020 8.5 (14:50) 2.4 (00:00) 5.5 8.89 (00:30) 5 (00:20) 0 0 0 0 0
16-03-2020 2.9 (23:59) 0.7 (00:00) 1.8 13.89 (10:30) 7.22 (10:30) 29.6 4.4 4.8 12.8 7.6
15-03-2020 12.5 (13:20) 1.5 (00:00) 7 15.28 (23:40) 7.22 (23:40) 0 0 0 0 0
14-03-2020 12.9 (13:50) 2.1 (00:00) 7.5 9.72 (15:30) 5.83 (15:40) 0 0 0 0 0
13-03-2020 13.4 (14:40) 5.1 (23:59) 9.2 13.33 (03:00) 5.28 (17:20) 0.8 0.4 0.4 0 0
12-03-2020 18.7 (14:50) 6.7 (00:00) 12.7 7.78 (15:20) 3.61 (21:30) 0 0 0 0 0
11-03-2020 18.8 (14:40) 5.2 (00:00) 12 7.78 (16:40) 4.72 (17:00) 0 0 0 0 0
10-03-2020 14.1 (13:00) 0.6 (00:00) 7.4 13.89 (05:10) 5.83 (05:00) 0 0 0 0 0
09-03-2020 5.7 (13:40) -0.6 (-00:0) 2.5 17.22 (19:20) 7.78 (18:40) 0 0 0 0 0
08-03-2020 11.6 (15:20) -2.2 (-00:0) 4.7 6.39 (00:10) 3.06 (12:50) 0 0 0 0 0
07-03-2020 3.3 (17:10) -5.2 (-00:0) -0.9 15.83 (08:10) 6.67 (08:10) 2.2 2.2 0 0 0
06-03-2020 2.8 (13:10) -4.8 (-00:0) -1 10.83 (23:30) 5.28 (15:20) 2 0 0.4 0 1.6
05-03-2020 9.1 (11:50) -1.1 (-00:0) 4 12.22 (16:40) 6.11 (09:10) 2.4 0 0 2.4 0
04-03-2020 8.9 (14:40) -2.5 (-00:0) 3.2 8.89 (02:10) 3.61 (12:50) 0 0 0 0 0

Gráficas

Temp. máximas Temp. mínimas Temp. medias Precipitaciones Rachas de viento máximas Velocidades máximas media en intervalos de 10 minutos

Datos horarios

Fecha y hora oficial Temperatura (ºC) Velocidad del viento (km/h) Dirección del viento Racha (km/h) Dirección de racha Precipitación (mm) Presión (hPa) Tendencia (hPa) Humedad (%)
2020-04-02 23:00:00 1 4 Sudeste 10 Sudeste 0 825.5 1.6 81
2020-04-02 22:00:00 1.6 4 Sudeste 11 Norte 0 825.1 1.4 79
2020-04-02 21:00:00 2.4 4 Sudoeste 21 Norte 0 824.5 1.2 78
2020-04-02 20:00:00 3.2 6 Noroeste 13 Noroeste 0 823.9 0.7 76
2020-04-02 19:00:00 4.3 6 Noroeste 19 Norte 0 823.7 0.5 73
2020-04-02 18:00:00 5.5 7 Norte 19 Norte 0 823.3 0.2 67
2020-04-02 17:00:00 5.9 9 Noroeste 23 Noroeste 0 823.2 -0.2 67
2020-04-02 16:00:00 6.3 11 Oeste 25 Noroeste 0 823.2 -0.4 66
2020-04-02 15:00:00 6 7 Noroeste 14 Norte 0 823.1 -0.4 73
2020-04-02 14:00:00 4.7 7 Oeste 17 Norte 0 823.4 0.1 79
2020-04-02 13:00:00 4.7 9 Norte 23 Norte 0 823.6 0.8 82
2020-04-02 12:00:00 3.9 5 Noroeste 13 Oeste 0 823.5 0.9 87
2020-04-02 11:00:00 3.5 5 Noroeste 15 Norte 0 823.3 0.9 88
2020-04-02 10:00:00 3 3 Norte 11 Sur 0 822.8 0.5 90
2020-04-02 09:00:00 1.1 3 Noroeste 7 Norte 0.2 822.6 0.3 99
2020-04-02 08:00:00 0.7 3 Nordeste 17 Este 0 822.4 -0.1 98
2020-04-02 07:00:00 0.8 2 Noroeste 6 Oeste 0 822.3 -0.7 97
2020-04-02 06:00:00 1.2 5 Sudeste 15 Sudeste 0 822.3 -1.1 94
2020-04-02 05:00:00 0.8 3 Este 17 Sudeste 0 822.5 -1.2 96
2020-04-02 04:00:00 0.8 4 Este 17 Sudeste 0 823 -1 95
2020-04-02 03:00:00 1 4 Sudeste 23 Sudeste 0.4 823.4 -0.9 96
2020-04-02 02:00:00 1.4 4 Sudeste 17 Este 0 823.7 -0.8 93
2020-04-02 01:00:00 1.7 7 Sudeste 24 Sudeste 0 824 -0.4 93
2020-04-02 00:00:00 1.9 13 Sudeste 22 Sudeste 0.2 824.3 0 92
2020-04-01 23:00:00 1.9 9 Sudeste 20 Sudeste 0.6 824.5 0.5 94
2020-04-01 22:00:00 2.1 8 Sudeste 18 Sudeste 1.2 824.4 0.3 93
2020-04-01 21:00:00 1.9 5 Nordeste 13 Nordeste 0 824.3 0 95
2020-04-01 20:00:00 2.7 5 Este 15 Sudeste 0 824 -0.6 89
2020-04-01 19:00:00 3.1 4 Sudeste 11 Sudeste 0.2 824.1 -0.8 89
2020-04-01 18:00:00 3.1 6 Sudeste 20 Sudeste 0.4 824.3 -1 90
2020-04-01 17:00:00 3.2 11 Sudeste 26 Sudeste 0 824.6 -1.2 82
2020-04-01 16:00:00 2.7 17 Sudeste 31 Sudeste 0.4 824.9 -1 88
2020-04-01 15:00:00 3 16 Sudeste 32 Sudeste 0 825.3 -1 87
2020-04-01 14:00:00 3.2 14 Sudeste 31 Sudeste 0.2 825.8 -0.6 91
2020-04-01 13:00:00 4.6 11 Sudeste 29 Sudeste 0 825.9 -0.3 79
2020-04-01 12:00:00 3 16 Sudeste 31 Sudeste 0 826.3 0.2 85
2020-04-01 11:00:00 2.8 5 Sudeste 21 Sudeste 0 826.4 0.4 87
2020-04-01 10:00:00 1.8 6 Sur 30 Sudeste 0 826.2 0.1 95
2020-04-01 09:00:00 1.2 17 Sudeste 33 Sudeste 0 826.1 0 92
2020-04-01 08:00:00 0.8 18 Sudeste 26 Sudeste 0 826 -0.1 97
2020-04-01 07:00:00 0.8 14 Sudeste 28 Sudeste 0 826.1 -0.1 99
2020-04-01 06:00:00 0.8 15 Sudeste 33 Sudeste 0.2 826.1 -0.3 98
2020-04-01 05:00:00 1.2 13 Sudeste 31 Sudeste 0.4 826.1 -0.5 96
2020-04-01 04:00:00 1.2 19 Sudeste 39 Sudeste 0.2 826.2 -0.6 95
2020-04-01 03:00:00 1.1 19 Sudeste 36 Sudeste 0.6 826.4 -0.3 96
2020-04-01 02:00:00 1.2 13 Sudeste 29 Sudeste 0.8 826.6 -0.1 94
2020-04-01 01:00:00 1.4 20 Sudeste 31 Sudeste 1.4 826.8 0.4 92
2020-04-01 00:00:00 1.2 18 Sudeste 33 Sudeste 0.6 826.7 0.6 93
2020-03-31 23:00:00 0.8 18 Sudeste 30 Sudeste 0.8 826.7 0.9 95
2020-03-31 22:00:00 1 19 Sudeste 33 Sudeste 1 826.4 1 94
2020-03-31 21:00:00 1.1 14 Sudeste 31 Sudeste 0.8 826.1 0.7 93
2020-03-31 20:00:00 1.3 14 Sudeste 28 Sudeste 0.2 825.8 0.5 92
2020-03-31 19:00:00 2 13 Sudeste 24 Sudeste 0 825.4 -0.1 86
2020-03-31 18:00:00 2.3 4 Este 22 Sudeste 0 825.4 -0.2 84
2020-03-31 17:00:00 2.9 4 Sur 22 Sudeste 0 825.3 -0.2 82
2020-03-31 16:00:00 4.3 6 Nordeste 33 Este 0 825.5 0 74
2020-03-31 15:00:00 4.7 7 Sudeste 27 Sudeste 0 825.6 0.4 76
2020-03-31 14:00:00 3.8 7 Este 22 Nordeste 0 825.5 0.4 89
2020-03-31 13:00:00 3.7 9 Sudeste 27 Sudeste 0 825.5 0.6 84
2020-03-31 12:00:00 4.2 11 Sudeste 23 Sudeste 0 825.2 0.4 83
2020-03-31 11:00:00 3.6 6 Sudeste 15 Sudoeste 0 825.1 0.7 81
2020-03-31 10:00:00 1.7 2 Nordeste 17 Nordeste 0 824.9 1.1 94
2020-03-31 09:00:00 1.1 4 Este 17 Nordeste 0.4 824.8 1 97
2020-03-31 08:00:00 0.9 8 Este 17 Este 0.2 824.4 0.9 97
2020-03-31 07:00:00 0.9 6 Nordeste 24 Este 0 823.8 -0.1 97
2020-03-31 06:00:00 0.8 4 Norte 21 Nordeste 0 823.8 -0.4 97
2020-03-31 05:00:00 1.1 10 Norte 20 Este 0 823.5 -0.9 94
2020-03-31 04:00:00 0.7 5 Sudeste 24 Sudeste 0 823.9 -0.6 100
2020-03-31 03:00:00 0.6 10 Este 21 Sudeste 0.2 824.2 -0.5 100
2020-03-31 02:00:00 0.7 5 Este 20 Sudeste 0 824.4 0 98
2020-03-31 01:00:00 0.5 6 Este 15 Nordeste 0 824.5 -0.1 97
2020-03-31 00:00:00 0.4 6 Este 17 Este 0 824.7 0.5 96
2020-03-30 23:00:00 -0.1 6 Este 14 Este 0 824.4 0.7 98
2020-03-30 22:00:00 0.1 6 Sudoeste 17 Este 0 824.6 1.3 92
2020-03-30 21:00:00 -0.6 6 Este 15 Sudeste 0 824.2 1.1 98
2020-03-30 20:00:00 -0.5 3 Norte 10 Noroeste 0 823.7 0.7 98
2020-03-30 19:00:00 -0.3 4 Norte 9 Norte 0 823.3 0.2 99
2020-03-30 18:00:00 -0.2 5 Noroeste 10 Norte 0.2 823.1 0 98
2020-03-30 17:00:00 -0.4 8 Norte 20 Sudoeste 0 823 -0.4 98
2020-03-30 16:00:00 1.3 4 Oeste 31 Sudoeste 0 823.1 -0.2 81
2020-03-30 15:00:00 0.8 12 Sudoeste 26 Sudoeste 0.2 823.1 -0.3 87
2020-03-30 14:00:00 0.7 8 Sudoeste 28 Sudoeste 0 823.4 0.4 88
2020-03-30 13:00:00 -0.3 9 Oeste 38 Sudoeste 0.2 823.3 0.7 98
2020-03-30 12:00:00 1.1 18 Sudoeste 42 Sur 0.2 823.4 0.6 86
2020-03-30 11:00:00 1.3 13 Sur 37 Sudoeste 0.6 823 0.3 85
2020-03-30 10:00:00 1.5 13 Sudoeste 39 Sudoeste 0.2 822.6 0.2 88
2020-03-30 09:00:00 0.7 8 Sudoeste 33 Sudoeste 0.2 822.8 0.1 95
2020-03-30 08:00:00 0.5 6 Sudoeste 31 Sudoeste 0.4 822.7 -0.7 98
2020-03-30 07:00:00 1.1 10 Sudeste 25 Sudoeste 1.4 822.4 -1.4 91
2020-03-30 06:00:00 0.9 8 Este 31 Sudoeste 0 822.7 -1.7 97
2020-03-30 05:00:00 1 9 Sudoeste 24 Sudoeste 0 823.4 -1.6 94
2020-03-30 04:00:00 1.3 5 Noroeste 28 Sudoeste 0 823.8 -1.8 93
2020-03-30 03:00:00 1.4 8 Sudoeste 28 Sudoeste 0.4 824.4 -1.2 93
2020-03-30 02:00:00 1 6 Sudeste 19 Sur 1.2 825 -1 95
2020-03-30 01:00:00 1.2 3 Sudoeste 20 Este 1.2 825.6 -0.7 92
2020-03-30 00:00:00 2.2 11 Este 18 Este 0 825.6 -0.6 85
2020-03-29 23:00:00 2.7 5 Sudeste 13 Sudeste 0 826 -0.1 78
2020-03-29 22:00:00 2.8 2 Sudeste 6 Sur 0 826.3 0.1 79
2020-03-29 21:00:00 3 4 Sur 10 Sudoeste 0 826.2 0.2 72
2020-03-29 20:00:00 4.3 4 Sudoeste 14 Noroeste 0 826.1 0.1 66
2020-03-29 19:00:00 5.5 10 Noroeste 21 Oeste 0 826.2 -0.2 58
2020-03-29 18:00:00 6.8 8 Noroeste 22 Noroeste 0 826 -0.7 51
2020-03-29 17:00:00 7.1 9 Sudeste 31 Sudeste 0 826 -1 56
2020-03-29 16:00:00 8.8 9 Noroeste 26 Noroeste 0 826.4 -1 43
2020-03-29 15:00:00 9.9 13 Noroeste 23 Noroeste 0 826.7 -1 39
2020-03-29 14:00:00 8.6 10 Noroeste 28 Noroeste 0 827 -1 43
2020-03-29 13:00:00 8 9 Noroeste 22 Noroeste 0 827.4 -0.5 44
2020-03-29 12:00:00 7 8 Noroeste 14 Norte 0 827.7 -0.3 43
2020-03-29 11:00:00 5.6 9 Noroeste 17 Noroeste 0 828 0.1 48
2020-03-29 10:00:00 4.1 3 Noroeste 10 Sur 0 827.9 0 58
2020-03-29 09:00:00 0.3 5 Sur 9 Sur 0 828 -0.1 75
2020-03-29 08:00:00 0.5 6 Sudoeste 15 Sudoeste 0 827.9 -0.5 71
2020-03-29 07:00:00 0 3 Sudoeste 11 Sudoeste 0 827.9 -1.1 72
2020-03-29 06:00:00 0.3 5 Sur 12 Sudoeste 0 828.1 -1.3 75
2020-03-29 05:00:00 -0.2 4 Sudeste 12 Sudoeste 0 828.4 -1.2 77
2020-03-29 03:00:00 0.2 7 Sur 11 Sudoeste 0 829.4 -0.3 78
2020-03-29 01:00:00 0.9 6 Sur 12 Sudoeste 0 829.6 0 77
2020-03-29 00:00:00 0.9 6 Sur 13 Sur 0 829.7 0.4 78
2020-03-28 23:00:00 1.8 6 Sudoeste 13 Sudoeste 0 829.7 0.8 75
2020-03-28 22:00:00 1.3 6 Sudoeste 10 Sur 0 829.6 1.1 77
2020-03-28 21:00:00 2.4 6 Sudoeste 14 Oeste 0 829.3 1.2 71
2020-03-28 20:00:00 2.6 7 Sudoeste 14 Sudoeste 0 828.9 0.9 69
2020-03-28 19:00:00 4.2 5 Norte 14 Nordeste 0 828.5 0.5 65
2020-03-28 18:00:00 5.4 6 Noroeste 22 Norte 0 828.1 0 63
2020-03-28 17:00:00 6 11 Norte 21 Norte 0 828 -0.2 60
2020-03-28 16:00:00 6.7 12 Norte 23 Norte 0 828 -0.3 58
2020-03-28 15:00:00 6.7 11 Norte 21 Norte 0 828.1 -0.3 58
2020-03-28 14:00:00 6.6 11 Norte 23 Norte 0 828.2 -0.1 59
2020-03-28 13:00:00 7.2 13 Norte 23 Norte 0 828.3 0.1 58
2020-03-28 12:00:00 6.4 9 Noroeste 19 Norte 0 828.4 0.7 55
2020-03-28 11:00:00 5.6 3 Sudoeste 13 Noroeste 0 828.3 0.9 61
2020-03-28 10:00:00 4.1 4 Oeste 11 Noroeste 0 828.2 0.9 64
2020-03-28 09:00:00 3 5 Oeste 12 Sudoeste 0 827.7 0.6 65
2020-03-28 08:00:00 1.9 6 Sudoeste 14 Sudoeste 0 827.4 0.6 73
2020-03-28 07:00:00 1.2 2 Sur 13 Sur 0 827.3 0.5 79
2020-03-28 06:00:00 0.8 7 Sur 13 Sur 0 827.1 0.1 77
2020-03-28 05:00:00 0.7 8 Sudoeste 19 Sudoeste 0 826.8 -0.2 75
2020-03-28 04:00:00 0.2 7 Sur 14 Sur 0 826.8 -0.2 76
2020-03-28 03:00:00 0.2 7 Sudoeste 13 Sur 0 827 0.1 77
2020-03-28 02:00:00 0.1 6 Sudoeste 11 Sur 0 827 0.3 79
2020-03-28 01:00:00 0 5 Sudoeste 9 Sudoeste 0 827 0.6 82
2020-03-28 00:00:00 0.1 4 Sudoeste 9 Sudoeste 0 826.9 0.8 81
2020-03-27 23:00:00 0 7 Sudoeste 16 Sudoeste 0 826.7 0.9 81
2020-03-27 22:00:00 0 8 Sudoeste 17 Sudoeste 0 826.4 1.3 81
2020-03-27 21:00:00 0 7 Oeste 21 Noroeste 0 826.1 1.7 79
2020-03-27 20:00:00 0.2 6 Noroeste 24 Noroeste 0 825.8 1.8 75
2020-03-27 19:00:00 0.2 7 Oeste 14 Noroeste 0 825.1 1.4 87
2020-03-27 18:00:00 2.2 4 Norte 10 Este 0 824.4 0.7 71
2020-03-27 17:00:00 2.8 4 Este 18 Sudeste 0 824 0.3 65
2020-03-27 16:00:00 3.8 3 Oeste 12 Noroeste 0 823.7 0 64
2020-03-27 15:00:00 3.4 7 Noroeste 15 Noroeste 0 823.7 0.1 61
2020-03-27 14:00:00 3.7 8 Oeste 19 Noroeste 0 823.7 -0.1 60
2020-03-27 13:00:00 2.2 8 Oeste 16 Noroeste 0 823.7 0.1 58
2020-03-27 12:00:00 1.9 7 Oeste 18 Oeste 0 823.6 0.4 55
2020-03-27 11:00:00 1.4 6 Oeste 15 Oeste 0 823.8 1 52
2020-03-27 10:00:00 0.2 6 Noroeste 22 Noroeste 0 823.6 1.1 51
2020-03-27 09:00:00 -1.5 5 Noroeste 23 Sudeste 0 823.2 0.9 51
2020-03-27 08:00:00 -2.4 7 Sudeste 17 Sudeste 0 822.8 0.8 52
2020-03-27 07:00:00 -4.4 7 Sudoeste 28 Sur 0 822.5 0.5 60
2020-03-27 06:00:00 -6.3 10 Sur 22 Sudoeste 0 822.3 0 72
2020-03-27 05:00:00 -6.6 5 Sur 13 Sudoeste 0 822 -0.1 71
2020-03-27 04:00:00 -7.1 8 Sudoeste 14 Sudoeste 0 822 -0.3 76
2020-03-27 03:00:00 -6.8 5 Sur 15 Oeste 0 822.3 0 74
2020-03-27 02:00:00 -7.4 4 Sur 12 Sur 0 822.1 -0.1 77
2020-03-27 01:00:00 -6.9 5 Sudeste 10 Sudeste 0 822.3 0.3 77
2020-03-27 00:00:00 -7 6 Sudeste 10 Sur 0 822.3 0.5 83
2020-03-26 23:00:00 -7.4 5 Sur 10 Sudoeste 0 822.2 1 83
2020-03-26 22:00:00 -5.8 9 Sur 15 Sur 0 822 1.3 81
2020-03-26 21:00:00 -6 8 Sur 13 Sudoeste 0 821.8 1.6 83
2020-03-26 20:00:00 -5.9 5 Sur 10 Sur 0 821.2 1.5 83
2020-03-26 19:00:00 -4.7 4 Sur 9 Sur 0 820.7 1.5 81
2020-03-26 18:00:00 -2.8 8 Sudeste 15 Sudeste 0 820.2 1.3 78
2020-03-26 17:00:00 -1.7 5 Nordeste 21 Norte 0 819.7 0.7 73
2020-03-26 16:00:00 -0.6 9 Norte 20 Norte 0 819.2 0.3 66
2020-03-26 15:00:00 -0.1 9 Norte 22 Norte 0 818.9 0.1 56
2020-03-26 14:00:00 0.1 9 Norte 23 Norte 0 819 0.3 55
2020-03-26 13:00:00 -1.5 10 Norte 28 Norte 0 818.9 0.6 63
2020-03-26 12:00:00 -0.7 5 Noroeste 17 Norte 0 818.8 0.8 71
2020-03-26 11:00:00 -3.1 6 Nordeste 16 Norte 2.4 818.7 0.9 91
2020-03-26 10:00:00 -3.3 5 Nordeste 14 Nordeste 1 818.3 0.5 93
2020-03-26 09:00:00 -3 3 Noroeste 7 Noroeste 0.2 818 0.1 95
2020-03-26 08:00:00 -3.9 0 Calma 5 Noroeste 0 817.8 -0.7 95
2020-03-26 07:00:00 -4.6 3 Sudeste 8 Sudoeste 0 817.8 -1.2 94
2020-03-26 06:00:00 -5 5 Sudeste 9 Sudeste 0 817.9 -1.6 95
2020-03-26 05:00:00 -5.4 4 Este 8 Este 0.4 818.5 -2.1 87
2020-03-26 04:00:00 -4.4 2 Este 14 Noroeste 0.2 819 -2.1 94
2020-03-26 03:00:00 -4.3 7 Sur 12 Sur 0 819.5 -2.1 95
2020-03-26 02:00:00 -5 4 Sudeste 11 Sur 0 820.6 -1.8 96
2020-03-26 01:00:00 -4.4 4 Sur 9 Sudoeste 0 821.1 -1.7 100
2020-03-26 00:00:00 -4.7 4 Sudeste 7 Sur 0 821.6 -1.5 96
2020-03-25 23:00:00 -3.4 2 Sudoeste 12 Noroeste 0 822.4 -0.2 98
2020-03-25 22:00:00 -2.7 3 Noroeste 10 Norte 0.2 822.8 0 100
2020-03-25 21:00:00 -2.4 5 Noroeste 9 Noroeste 0 823.1 0.1 99
2020-03-25 20:00:00 -2.1 4 Oeste 13 Nordeste 0 822.6 -0.6 96
2020-03-25 19:00:00 -2 2 Sudeste 7 Nordeste 0.2 822.8 -0.6 94
2020-03-25 18:00:00 -1.6 3 Noroeste 9 Este 0 823 -0.8 94
2020-03-25 17:00:00 -1.8 3 Nordeste 12 Noroeste 0.4 823.2 -1.1 91
2020-03-25 16:00:00 -1.3 5 Norte 12 Norte 0.2 823.4 -1.4 91
2020-03-25 15:00:00 -0.7 5 Norte 14 Noroeste 0 823.8 -1.4 88
2020-03-25 14:00:00 -0.6 7 Noroeste 17 Noroeste 0.2 824.3 -1 90
2020-03-25 13:00:00 1.3 7 Nordeste 17 Nordeste 0 824.8 -0.8 57
2020-03-25 12:00:00 0.8 6 Nordeste 22 Sudeste 0 825.2 -0.1 53
2020-03-25 11:00:00 -2 12 Sudeste 30 Sudeste 0.2 825.3 -0.1 46
2020-03-25 10:00:00 -3.8 18 Sudeste 42 Sudeste 0 825.6 0.5 63
2020-03-25 09:00:00 -4.5 17 Sudeste 36 Sudeste 0.2 825.3 0.1 78
2020-03-25 08:00:00 -4.4 6 Sudeste 18 Sudeste 0.6 825.4 0.5 88
2020-03-25 07:00:00 -4.8 9 Sudeste 28 Sudeste 1 825.1 -0.2 88
2020-03-25 06:00:00 -4.3 5 Sudeste 34 Sudeste 1.2 825.2 -0.8 88
2020-03-25 05:00:00 -4.1 11 Este 35 Este 0.2 824.9 -1.2 91
2020-03-25 04:00:00 -3.7 9 Sudeste 33 Sudeste 0.2 825.3 -1.4 93
2020-03-25 03:00:00 -3.4 17 Sudeste 37 Sudeste 0 826 -1 88
2020-03-25 02:00:00 -1.7 6 Este 18 Sudeste 0 826.1 -1.5 90
2020-03-25 01:00:00 -1 6 Nordeste 13 Nordeste 0 826.7 -1 84
2020-03-25 00:00:00 -0.5 5 Sudeste 10 Norte 0 827 -0.8 77
2020-03-24 23:00:00 -0.4 2 Este 8 Sudeste 0 827.6 0 72
2020-03-24 22:00:00 -1.1 5 Sudeste 9 Sur 0 827.7 0.3 76
2020-03-24 21:00:00 -1 5 Sur 8 Sudeste 0 827.8 0.4 83
2020-03-24 20:00:00 -0.2 4 Sudeste 9 Sur 0 827.6 0 83
2020-03-24 19:00:00 1.4 3 Sur 14 Nordeste 0 827.4 -0.1 84
2020-03-24 18:00:00 4.4 3 Oeste 24 Este 0 827.4 -0.4 71
2020-03-24 17:00:00 2.1 21 Sudeste 31 Sudeste 0 827.6 -0.9 94
2020-03-24 16:00:00 5.7 13 Sudeste 28 Sudeste 0 827.5 -1.6 72
2020-03-24 15:00:00 7.9 11 Sudeste 25 Noroeste 0 827.8 -1.6 58
2020-03-24 14:00:00 8 7 Oeste 20 Noroeste 0 828.5 -1.2 49
2020-03-24 13:00:00 6.7 7 Noroeste 22 Noroeste 0 829.1 -0.9 56
2020-03-24 12:00:00 6.4 8 Noroeste 17 Noroeste 0 829.4 -0.7 55
2020-03-24 11:00:00 5.1 4 Norte 13 Norte 0 829.7 -0.2 65
2020-03-24 10:00:00 2.6 2 Noroeste 9 Noroeste 0 830 0.2 82
2020-03-24 09:00:00 1 2 Norte 6 Sudoeste 0 830.1 0.2 92
2020-03-24 08:00:00 -0.5 5 Sur 8 Sur 0 829.9 0 95
2020-03-24 07:00:00 -1.7 5 Sudeste 8 Sudeste 0 829.8 -0.3 92
2020-03-24 06:00:00 -1.1 4 Sudeste 8 Sudeste 0 829.9 -0.6 91
2020-03-24 05:00:00 -0.7 6 Este 11 Sudeste 0 829.9 -0.6 95
2020-03-24 04:00:00 -0.4 8 Sudeste 12 Sudeste 0 830.1 -0.6 95
2020-03-24 03:00:00 0.3 2 Este 18 Sudeste 0 830.5 -0.3 94
2020-03-24 02:00:00 0.2 5 Sudeste 7 Sudeste 0 830.5 -0.6 96
2020-03-24 01:00:00 0.2 4 Sudeste 23 Sudeste 0 830.7 -0.5 94
2020-03-24 00:00:00 1.4 4 Este 9 Este 0 830.8 -0.6 93
2020-03-23 23:00:00 0.5 4 Sudeste 6 Sudeste 0 831.1 0.1 95
2020-03-23 22:00:00 1.4 3 Nordeste 12 Sudeste 0 831.2 0.5 92
2020-03-23 21:00:00 2 8 Sudeste 15 Sudeste 0 831.4 1.2 94
2020-03-23 20:00:00 2.2 9 Sudeste 15 Este 0 831 1 91
2020-03-23 19:00:00 2.5 5 Este 19 Sudeste 0 830.7 0.6 94
2020-03-23 18:00:00 3.6 5 Sudeste 22 Este 0 830.2 0.1 90
2020-03-23 17:00:00 3.8 9 Sudeste 24 Sur 0 830 -0.4 90
2020-03-23 16:00:00 4.5 6 Este 26 Sudeste 0 830.1 -0.6 87
2020-03-23 15:00:00 4.5 10 Sudeste 27 Sudeste 0.2 830.1 -0.4 88
2020-03-23 14:00:00 4 11 Sudeste 22 Sudeste 0.2 830.4 0 90
2020-03-23 13:00:00 3.6 5 Sudeste 18 Sur 0 830.7 0.5 88
2020-03-23 12:00:00 4.4 6 Sur 24 Sudeste 0 830.5 0.9 81
2020-03-23 11:00:00 3.9 6 Sudeste 21 Sudeste 0 830.4 1.4 87
2020-03-23 10:00:00 2.6 8 Sudeste 18 Sudeste 0.2 830.2 1.6 94
2020-03-23 09:00:00 2.2 5 Sudeste 15 Este 0.2 829.6 1.3 93
2020-03-23 08:00:00 2.4 8 Nordeste 13 Este 0 829 1 92
2020-03-23 07:00:00 2.1 3 Sudeste 15 Sudeste 0 828.6 0.8 88
2020-03-23 06:00:00 2.4 8 Sudeste 14 Sudeste 0 828.3 0.5 87
2020-03-23 05:00:00 2.4 9 Sudeste 18 Este 0 828 0.1 87
2020-03-23 04:00:00 1.9 6 Sudeste 17 Sudeste 0 827.8 -0.3 82
2020-03-23 03:00:00 1.2 4 Sur 8 Sudeste 0 827.8 -0.3 85
2020-03-23 02:00:00 1 4 Este 8 Sudeste 0 827.9 -0.2 85
2020-03-23 01:00:00 0.8 4 Sudeste 22 Sudeste 0 828.1 0.3 86
2020-03-23 00:00:00 1.7 12 Sudeste 21 Sudeste 0 828.1 0.8 82
2020-03-22 23:00:00 1.6 14 Sudeste 23 Sudeste 0 828.1 1.2 91
2020-03-22 22:00:00 2.1 11 Sudeste 22 Sudeste 0 827.8 1.5 85
2020-03-22 21:00:00 2.3 8 Sudeste 23 Sudeste 0 827.3 1.7 81
2020-03-22 20:00:00 3 7 Sudeste 25 Sudeste 0 826.9 1.5 80
2020-03-22 19:00:00 3.4 17 Sudeste 27 Sudeste 0 826.3 1 77
2020-03-22 18:00:00 4.6 13 Sudeste 25 Sudeste 0 825.6 0.3 71
2020-03-22 17:00:00 6.5 9 Sudeste 31 Sudeste 0 825.4 -0.2 59
2020-03-22 16:00:00 6.8 16 Sudeste 34 Sudeste 0 825.3 -0.3 58
2020-03-22 15:00:00 6.2 16 Sudeste 36 Este 0 825.3 -0.1 62
2020-03-22 14:00:00 4.7 21 Sudeste 35 Sudeste 0 825.6 0.6 69
2020-03-22 13:00:00 4.5 18 Sudeste 34 Sudeste 0 825.6 0.9 76
2020-03-22 12:00:00 4.4 18 Sudeste 37 Sudeste 0 825.4 1 77
2020-03-22 11:00:00 5.8 13 Sudeste 24 Sudeste 0 825 0.8 67
2020-03-22 10:00:00 5.5 11 Este 17 Sudeste 0 824.7 0.7 71
2020-03-22 09:00:00 3.6 2 Noroeste 6 Nordeste 0 824.4 0.7 82
2020-03-22 08:00:00 2.5 3 Nordeste 8 Este 0 824.2 0.6 89
2020-03-22 07:00:00 1.3 3 Sur 5 Sur 0 824 0.1 95
2020-03-22 06:00:00 1 2 Sudeste 7 Sudeste 0 823.7 -0.5 96
2020-03-22 05:00:00 1.6 3 Sur 5 Noroeste 0 823.6 -0.8 95
2020-03-22 04:00:00 2.1 0 Calma 5 Oeste 0 823.9 -0.6 95
2020-03-22 03:00:00 2.3 2 Nordeste 5 Nordeste 0 824.2 -0.6 95
2020-03-22 02:00:00 2.2 0 Calma 6 Noroeste 0 824.4 -0.6 94
2020-03-22 01:00:00 2.4 2 Sur 4 Sur 0 824.5 -0.5 90
2020-03-22 00:00:00 2.8 2 Norte 5 Norte 0 824.8 -0.1 89
2020-03-21 23:00:00 2.6 3 Este 7 Este 0 825 0.3 90
2020-03-21 22:00:00 2.5 8 Sudeste 13 Sudeste 0 825 0.9 89
2020-03-21 21:00:00 2.9 3 Sudeste 15 Sur 0 824.9 1.1 86
2020-03-21 20:00:00 3.8 8 Sudeste 28 Sudeste 0 824.7 0.8 82
2020-03-21 19:00:00 4 11 Sudeste 27 Sudeste 0 824.1 -0.1 80
2020-03-21 18:00:00 5.5 15 Sudeste 32 Sur 0 823.8 -0.7 72
2020-03-21 17:00:00 6.5 18 Sudeste 35 Sudeste 0 823.9 -0.8 68
2020-03-21 16:00:00 8.2 12 Sudeste 31 Sudeste 0 824.2 -0.9 63
2020-03-21 15:00:00 8.4 14 Sudeste 33 Sudeste 0 824.5 -0.9 57
2020-03-21 14:00:00 8.8 14 Sudeste 28 Sudeste 0 824.7 -1 54
2020-03-21 13:00:00 8.8 12 Sudeste 24 Sudeste 0 825.1 -0.7 52
2020-03-21 12:00:00 8 7 Nordeste 19 Este 0 825.4 -0.5 59
2020-03-21 11:00:00 6.8 8 Este 21 Nordeste 0 825.7 -0.3 54
2020-03-21 10:00:00 5.8 2 Oeste 7 Noroeste 0 825.8 -0.1 56
2020-03-21 09:00:00 1.3 2 Este 7 Sudeste 0 825.9 -0.2 68
2020-03-21 08:00:00 -1 4 Sudeste 10 Sudeste 0 826 -0.4 71
2020-03-21 07:00:00 -1.5 4 Sudeste 8 Sudeste 0 825.9 -0.8 69
2020-03-21 06:00:00 -0.4 4 Nordeste 9 Sudeste 0 826.1 -1.1 56
2020-03-21 05:00:00 -0.2 4 Sudeste 10 Sudeste 0 826.4 -1.3 50
2020-03-21 04:00:00 1.3 3 Sur 18 Sudeste 0 826.7 -1.5 47
2020-03-21 03:00:00 0 5 Sudeste 10 Sudeste 0 827.2 -1.7 51
2020-03-21 02:00:00 -0.3 4 Sudeste 11 Este 0 827.7 -1.5 74
2020-03-21 01:00:00 0.1 8 Sudeste 10 Sudeste 0 828.2 -1.1 84
2020-03-21 00:00:00 0.4 8 Sudeste 10 Sudeste 0 828.9 -0.4 80
2020-03-20 23:00:00 1 5 Este 9 Este 0 829.2 -0.1 86
2020-03-20 22:00:00 1.6 5 Sudeste 10 Sudeste 0 829.3 0.1 83
2020-03-20 21:00:00 2.1 5 Sudeste 14 Este 0 829.3 -0.1 78
2020-03-20 20:00:00 3 6 Sudeste 26 Sur 0 829.3 -0.2 72
2020-03-20 19:00:00 4.9 13 Sudeste 29 Sudeste 0 829.2 -0.3 67
2020-03-20 18:00:00 6.1 16 Sudeste 28 Sur 0 829.4 -0.5 60
2020-03-20 17:00:00 7.6 12 Sur 41 Este 0 829.5 -0.7 52
2020-03-20 16:00:00 8.5 16 Sudeste 33 Este 0 829.5 -1 49
2020-03-20 15:00:00 9.6 12 Sudeste 23 Sudeste 0 829.9 -0.7 38
2020-03-20 14:00:00 8.7 12 Sudeste 24 Sudeste 0 830.2 -0.5 28
2020-03-20 13:00:00 8.3 14 Sudeste 23 Sudeste 0 830.5 -0.1 35
2020-03-20 12:00:00 9.1 10 Sur 22 Sudoeste 0 830.6 0.1 37
2020-03-20 11:00:00 8.7 8 Este 18 Sudeste 0 830.7 0.5 22
2020-03-20 10:00:00 6.8 3 Sur 13 Sudoeste 0 830.6 0.4 26
2020-03-20 09:00:00 2 4 Sudeste 10 Sudeste 0 830.5 0.1 35
2020-03-20 08:00:00 -1 5 Sudeste 10 Sudeste 0 830.2 -0.2 47
2020-03-20 07:00:00 -1.3 8 Sudeste 12 Sudeste 0 830.2 -0.4 74
2020-03-20 06:00:00 -0.9 7 Sudeste 11 Sudeste 0 830.4 -0.6 83
2020-03-20 05:00:00 -0.6 8 Sudeste 12 Sudeste 0 830.4 -1 75
2020-03-20 04:00:00 -0.6 6 Sudeste 10 Sudeste 0 830.6 -0.9 80
2020-03-20 03:00:00 -0.7 6 Sudeste 10 Sudeste 0 831 -1 71
2020-03-20 02:00:00 -0.3 5 Sudeste 9 Sudeste 0 831.4 -0.9 71
2020-03-20 01:00:00 0.4 4 Sudeste 9 Sudeste 0 831.5 -0.9 76
2020-03-20 00:00:00 0.9 5 Este 9 Sudeste 0 832 -0.5 76
2020-03-19 23:00:00 2.1 5 Sudeste 18 Este 0 832.3 -0.3 75
2020-03-19 22:00:00 3 5 Sudeste 13 Sudeste 0 832.4 -0.1 75
2020-03-19 21:00:00 3.9 8 Sudeste 20 Sudeste 0 832.5 0 73
2020-03-19 20:00:00 4.8 11 Sudeste 33 Sur 0 832.6 -0.1 70
2020-03-19 19:00:00 5.4 19 Sur 37 Sudoeste 0 832.5 -0.4 68
2020-03-19 18:00:00 7.1 12 Sudeste 37 Sudeste 0 832.5 -0.9 58
2020-03-19 17:00:00 8.9 17 Sudeste 33 Sudeste 0 832.7 -1.3 53
2020-03-19 16:00:00 11.6 5 Sudeste 24 Sur 0 832.9 -1.7 41
2020-03-19 15:00:00 11.7 7 Sudeste 24 Sudeste 0 833.4 -1.6 38
2020-03-19 14:00:00 10.9 10 Sur 27 Sudeste 0 834 -1.1 37
2020-03-19 13:00:00 10.2 14 Sudeste 31 Sudeste 0 834.6 -0.6 35
2020-03-19 12:00:00 9.9 13 Sudeste 30 Sudeste 0 835 0.4 33
2020-03-19 11:00:00 9.5 15 Sudeste 30 Sudeste 0 835.1 0.7 32
2020-03-19 10:00:00 9.3 11 Sudeste 29 Sudeste 0 835.2 0.8 30
2020-03-19 09:00:00 6.6 9 Sur 20 Este 0 834.6 0.2 29
2020-03-19 08:00:00 4.1 6 Sur 17 Sudoeste 0 834.4 -0.2 36
2020-03-19 07:00:00 3.4 6 Sur 16 Sudeste 0 834.4 -0.5 49
2020-03-19 06:00:00 4.4 8 Sudeste 17 Sudeste 0 834.4 -1 43
2020-03-19 05:00:00 2.7 5 Sudeste 9 Sudeste 0 834.6 -1.3 55
2020-03-19 04:00:00 2.3 5 Sudeste 10 Sudeste 0 834.9 -1.3 53
2020-03-19 03:00:00 2.7 5 Sudeste 9 Sudeste 0 835.4 -1.1 54
2020-03-19 02:00:00 3 4 Sudeste 10 Sudeste 0 835.9 -0.9 52
2020-03-19 01:00:00 4.2 8 Sudeste 13 Sudeste 0 836.2 -0.7 55
2020-03-19 00:00:00 3.9 5 Este 10 Sudeste 0 836.5 -0.4 67
2020-03-18 23:00:00 4.6 7 Sur 11 Sur 0 836.8 -0.2 67
2020-03-18 22:00:00 4.5 7 Sur 10 Sudeste 0 836.9 0.2 76
2020-03-18 21:00:00 4.7 7 Sur 9 Sur 0 836.9 0.6 77
2020-03-18 20:00:00 4.8 6 Sur 9 Sur 0 837 0.8 84
2020-03-18 19:00:00 6 5 Sudeste 12 Este 0 836.7 0.2 80
2020-03-18 18:00:00 8 11 Sudeste 17 Este 0 836.3 -0.3 74
2020-03-18 17:00:00 9.4 9 Sudeste 17 Sudeste 0 836.2 -0.9 67
2020-03-18 16:00:00 9.9 13 Sudeste 22 Sudeste 0 836.5 -1.1 66
2020-03-18 15:00:00 12 9 Sudeste 19 Nordeste 0 836.6 -1.5 55
2020-03-18 14:00:00 12 11 Norte 17 Norte 0 837.1 -1.3 47
2020-03-18 13:00:00 11.5 4 Oeste 15 Noroeste 0 837.6 -1 52
2020-03-18 12:00:00 11 6 Noroeste 14 Norte 0 838.1 -0.4 57
2020-03-18 11:00:00 9.4 5 Noroeste 11 Oeste 0 838.4 0 63
2020-03-18 10:00:00 8.2 6 Oeste 13 Sudoeste 0 838.6 0.2 66
2020-03-18 09:00:00 6.4 6 Sur 10 Sudoeste 0 838.5 0 75
2020-03-18 08:00:00 5.7 7 Sudeste 17 Sudeste 0 838.4 -0.2 74
2020-03-18 07:00:00 3.8 6 Sur 11 Sur 0 838.4 -0.3 86
2020-03-18 06:00:00 4.1 8 Sur 14 Sur 0 838.5 -0.3 86
2020-03-18 05:00:00 3.6 6 Sur 13 Sur 0 838.6 -0.7 90
2020-03-18 04:00:00 4.1 6 Sur 13 Sudeste 0 838.7 -0.8 86
2020-03-18 03:00:00 3.9 5 Sur 17 Sur 0 838.8 -1.1 89
2020-03-18 02:00:00 4.1 8 Sur 14 Sur 0 839.3 -0.8 89
2020-03-18 01:00:00 4.1 6 Sur 11 Sur 0 839.5 -0.5 91
2020-03-18 00:00:00 3.9 6 Sur 10 Sudoeste 0 839.9 0.1 94
2020-03-17 23:00:00 3.8 5 Sudeste 8 Sudeste 0 840.1 0.7 94
2020-03-17 22:00:00 4.1 4 Sudeste 8 Sudeste 0 840 1.1 93
2020-03-17 21:00:00 4.3 6 Sudeste 9 Sudeste 0 839.8 1 94
2020-03-17 20:00:00 4.6 4 Sudeste 9 Sudeste 0 839.4 0.7 90
2020-03-17 19:00:00 5.2 5 Sudeste 10 Sudeste 0 838.9 0.1 89
2020-03-17 18:00:00 5.7 5 Sudeste 8 Sudeste 0 838.8 -0.1 88
2020-03-17 17:00:00 7.1 3 Sudeste 6 Este 0 838.7 -0.2 81
2020-03-17 16:00:00 7.8 3 Sudeste 18 Norte 0 838.8 -0.3 77
2020-03-17 15:00:00 8.3 6 Nordeste 20 Nordeste 0 838.9 -0.2 75
2020-03-17 14:00:00 8 3 Sudeste 20 Sudeste 0 838.9 0.1 73
2020-03-17 13:00:00 7.7 11 Sudeste 21 Sudeste 0 839.1 0.6 74
2020-03-17 12:00:00 7.3 4 Este 15 Sudeste 0 839.1 1 77
2020-03-17 11:00:00 6.1 7 Sudeste 14 Sudeste 0 838.8 1.3 80
2020-03-17 10:00:00 5.3 4 Sudeste 21 Sudeste 0 838.5 1.5 81
2020-03-17 09:00:00 4.6 10 Sudeste 19 Sudeste 0 838.1 1.4 83
2020-03-17 08:00:00 4.1 12 Sudeste 26 Sudeste 0 837.5 1.4 80
2020-03-17 07:00:00 3.8 15 Sudeste 26 Sudeste 0 837 1.1 76
2020-03-17 06:00:00 3.1 14 Sudeste 26 Sudeste 0 836.7 1.3 84
2020-03-17 05:00:00 3.1 18 Sudeste 27 Sudeste 0 836.1 1 85
2020-03-17 04:00:00 2.5 14 Sudeste 21 Este 0 835.9 0.8 91
2020-03-17 03:00:00 2.7 6 Sudeste 24 Este 0 835.4 0.3 93
2020-03-17 02:00:00 2.9 14 Este 31 Este 0 835.1 0.4 94
2020-03-17 01:00:00 2.5 13 Sudeste 32 Sudeste 0 835.1 1.1 98
2020-03-17 00:00:00 2.8 16 Sudeste 27 Sudeste 0 835.1 1.8 96
2020-03-16 23:00:00 2.5 8 Sudeste 21 Sudeste 0 834.7 2 97
2020-03-16 22:00:00 2.6 10 Sudeste 26 Sudeste 0 834 2.1 95
2020-03-16 21:00:00 1.8 4 Sur 20 Sudeste 1.4 833.3 2.3 97
2020-03-16 20:00:00 1.9 11 Sudeste 22 Este 3 832.7 2.2 95
2020-03-16 19:00:00 1.1 5 Sudeste 11 Sur 3.2 831.9 1.9 97
2020-03-16 18:00:00 1.3 5 Sudeste 23 Sudeste 3 831 1.6 96
2020-03-16 17:00:00 1.5 8 Sudeste 31 Sudeste 3.8 830.5 1.7 96
2020-03-16 16:00:00 1.6 16 Sudeste 35 Sudeste 2 830 1.2 95
2020-03-16 15:00:00 1.6 14 Sudeste 40 Sudeste 3.4 829.4 0.7 96
2020-03-16 14:00:00 1.9 17 Sudeste 38 Sudeste 0.2 828.8 0.6 95
2020-03-16 13:00:00 1.1 19 Sudeste 38 Sudeste 0.4 828.8 1.3 97
2020-03-16 12:00:00 1 21 Sudeste 49 Sudeste 0.8 828.7 1.4 94
2020-03-16 11:00:00 1.5 21 Sudeste 50 Sudeste 1.4 828.2 1.3 87
2020-03-16 10:00:00 2 17 Sudeste 40 Sudeste 1.4 827.5 1.2 92
2020-03-16 09:00:00 2.2 8 Sudeste 36 Sudeste 0.6 827.3 1.3 97
2020-03-16 08:00:00 2 11 Sudeste 31 Sudeste 0.2 826.9 1 100
2020-03-16 07:00:00 2.3 5 Este 28 Sudeste 0.4 826.3 0.4 100
2020-03-16 06:00:00 2.5 6 Sudeste 27 Sudeste 0.2 826 -0.6 97
2020-03-16 05:00:00 2.5 10 Sudeste 38 Sudeste 0.6 825.9 -1 96
2020-03-16 04:00:00 2.2 14 Este 36 Sudeste 0.8 825.9 -1 98
2020-03-16 03:00:00 2.4 8 Este 33 Sudeste 1.6 826.6 0 97
2020-03-16 02:00:00 2.7 13 Este 42 Sudeste 0.8 826.9 -0.1 97
2020-03-16 01:00:00 2.5 15 Este 47 Este 0.4 826.9 -0.2 100
2020-03-16 00:00:00 2.6 21 Este 55 Sudeste 0 826.6 -0.5 100
2020-03-15 23:00:00 3 26 Sudeste 44 Sudeste 0 827 -0.3 100
2020-03-15 22:00:00 3.7 15 Sudeste 47 Sudeste 0 827.1 -0.5 100
2020-03-15 21:00:00 4.1 17 Sudeste 42 Sudeste 0 827.1 0 100
2020-03-15 20:00:00 4.3 16 Sudeste 32 Sudeste 0 827.3 -0.3 100
2020-03-15 19:00:00 4.7 18 Sudeste 28 Sudeste 0 827.6 -0.1 98
2020-03-15 18:00:00 6.5 21 Sudeste 28 Sudeste 0 827.1 -1 81
2020-03-15 17:00:00 10.1 13 Sur 28 Sur 0 827.6 -0.9 62
2020-03-15 16:00:00 11.7 8 Sur 25 Sudeste 0 827.7 -1.4 54
2020-03-15 15:00:00 12 9 Sur 26 Sudoeste 0 828.1 -1.5 54
2020-03-15 14:00:00 11.9 10 Sur 25 Sudoeste 0 828.5 -1.3 54
2020-03-15 13:00:00 11.8 12 Noroeste 22 Noroeste 0 829.1 -0.8 49
2020-03-15 12:00:00 10.6 6 Nordeste 17 Noroeste 0 829.6 -0.2 55
2020-03-15 11:00:00 8.1 3 Norte 11 Norte 0 829.8 0.2 71
2020-03-15 10:00:00 6.4 3 Norte 9 Noroeste 0 829.9 0.3 76
2020-03-15 09:00:00 4.5 3 Nordeste 9 Sudeste 0 829.8 0.1 84
2020-03-15 08:00:00 2.6 5 Sudeste 8 Sudeste 0 829.6 -0.4 96
2020-03-15 07:00:00 1.7 4 Sudeste 7 Sudoeste 0 829.6 -0.7 94
2020-03-15 06:00:00 2.8 3 Sur 7 Sudoeste 0 829.7 -1.1 92
2020-03-15 05:00:00 3.1 4 Sudoeste 9 Sudoeste 0 830 -1.2 93
2020-03-15 04:00:00 3.1 5 Sudoeste 10 Sudoeste 0 830.3 -1.1 94
2020-03-15 03:00:00 3.2 5 Sudoeste 9 Sudoeste 0 830.8 -0.8 93
2020-03-15 02:00:00 3.4 3 Sur 8 Sudeste 0 831.2 -0.6 94
2020-03-15 01:00:00 3.6 2 Este 8 Este 0 831.4 -0.3 99
2020-03-15 00:00:00 3.1 3 Este 9 Sudeste 0 831.6 0.2 94
2020-03-14 23:00:00 3.9 4 Sudeste 7 Sur 0 831.8 0.7 92
2020-03-14 22:00:00 3.7 5 Sur 7 Sur 0 831.7 0.8 90
2020-03-14 21:00:00 5 4 Sudeste 8 Sudeste 0 831.4 0.8 85
2020-03-14 20:00:00 4.7 6 Este 15 Este 0 831.1 0.8 85
2020-03-14 19:00:00 5.8 9 Este 21 Sudeste 0 830.9 0.6 84
2020-03-14 18:00:00 8 5 Este 24 Nordeste 0 830.6 0.4 74
2020-03-14 17:00:00 9.9 14 Sur 33 Sur 0 830.3 -0.2 64
2020-03-14 16:00:00 10 18 Sur 35 Sur 0 830.3 -0.6 68
2020-03-14 15:00:00 10.9 17 Sur 33 Sur 0 830.2 -0.9 60
2020-03-14 14:00:00 12.7 12 Sur 24 Sudeste 0 830.5 -0.8 49
2020-03-14 13:00:00 11.9 9 Sudeste 19 Sudeste 0 830.9 -0.3 53
2020-03-14 12:00:00 12.4 5 Norte 19 Norte 0 831.1 0.1 54
2020-03-14 11:00:00 10.4 3 Noroeste 9 Noroeste 0 831.3 0.4 46
2020-03-14 10:00:00 7.5 4 Sudeste 6 Este 0 831.2 0.8 63
2020-03-14 09:00:00 3.2 4 Sudeste 9 Este 0 831 0.5 84
2020-03-14 08:00:00 2.1 5 Este 9 Sudeste 0 830.9 1 96
2020-03-14 07:00:00 2.2 4 Sudeste 8 Sudeste 0 830.4 0.5 95
2020-03-14 06:00:00 3.6 2 Este 8 Sudeste 0 830.5 0.2 97
2020-03-14 05:00:00 4.2 3 Sur 7 Oeste 0 829.9 -1 93
2020-03-14 04:00:00 5 2 Nordeste 6 Sudoeste 0 829.9 -0.9 97
2020-03-14 03:00:00 4.7 2 Sur 5 Sur 0 830.3 -0.7 93
2020-03-14 02:00:00 5.1 3 Sur 6 Sudoeste 0 830.9 -0.2 96
2020-03-14 01:00:00 5.2 4 Sudeste 8 Sur 0 830.8 -0.2 94
2020-03-14 00:00:00 5.1 2 Sudeste 7 Sudeste 0 831 0.2 94
2020-03-13 23:00:00 5.9 3 Este 10 Norte 0 831.1 0.4 96
2020-03-13 22:00:00 6.4 2 Nordeste 13 Norte 0 831 0.5 96
2020-03-13 21:00:00 6.1 2 Sur 5 Sudoeste 0 830.8 0.6 91
2020-03-13 20:00:00 7.2 3 Oeste 16 Sur 0 830.7 0.4 86
2020-03-13 19:00:00 7.6 13 Sur 24 Sur 0 830.5 -0.1 86
2020-03-13 18:00:00 8.7 12 Sur 32 Sudeste 0 830.2 -0.6 79
2020-03-13 17:00:00 10 17 Sur 28 Sur 0 830.3 -0.7 74
2020-03-13 16:00:00 11.3 13 Sudeste 26 Sudeste 0 830.6 -0.8 69
2020-03-13 15:00:00 12.2 13 Sur 24 Sur 0 830.8 -1.3 66
2020-03-13 14:00:00 11.3 8 Este 27 Sudoeste 0 831 -1 72
2020-03-13 13:00:00 11.6 13 Sudeste 25 Sudeste 0 831.4 -0.7 72
2020-03-13 12:00:00 10.5 4 Nordeste 11 Norte 0 832.1 -0.1 78
2020-03-13 11:00:00 10.9 5 Noroeste 12 Noroeste 0 832 0.4 83
2020-03-13 10:00:00 7.3 4 Sudeste 18 Este 0.4 832.1 0.5 90
2020-03-13 09:00:00 7.8 5 Noroeste 19 Norte 0 832.2 0.7 87
2020-03-13 08:00:00 6.7 6 Sudeste 10 Sur 0 831.6 0.5 83
2020-03-13 07:00:00 6.2 4 Sudeste 12 Sudeste 0 831.6 -0.2 78
2020-03-13 06:00:00 6.5 8 Este 15 Sudoeste 0 831.5 -1.1 82
2020-03-13 05:00:00 7.2 9 Sudoeste 26 Sudoeste 0.2 831.1 -1.7 84
2020-03-13 04:00:00 7.8 7 Sudoeste 37 Oeste 0.2 831.8 -1.8 80
2020-03-13 03:00:00 9.5 11 Oeste 48 Oeste 0 832.6 -1.2 59
2020-03-13 02:00:00 8.7 5 Sudoeste 18 Sudoeste 0 832.8 -0.9 70
2020-03-13 01:00:00 9.7 10 Oeste 25 Oeste 0 833.6 0.1 68
2020-03-13 00:00:00 10.6 10 Oeste 20 Oeste 0 833.8 0.5 60
2020-03-12 23:00:00 10.7 8 Sudoeste 19 Sudeste 0 833.7 0.2 58
2020-03-12 22:00:00 10.8 8 Sur 19 Sur 0 833.5 0.3 63
2020-03-12 21:00:00 10.7 7 Sur 15 Sudeste 0 833.3 0.3 57
2020-03-12 20:00:00 12 8 Sur 21 Sur 0 833.5 0.4 54
2020-03-12 19:00:00 13.2 11 Sur 23 Sudeste 0 833.2 -0.1 48
2020-03-12 18:00:00 14.9 13 Sur 24 Sur 0 833 -0.8 45
2020-03-12 17:00:00 16.8 12 Sur 26 Sudoeste 0 833.1 -1.4 41
2020-03-12 16:00:00 17 8 Sur 28 Sudoeste 0 833.3 -1.9 40
2020-03-12 15:00:00 18.2 10 Sur 23 Sudoeste 0 833.8 -1.9 36
2020-03-12 14:00:00 18.4 11 Noroeste 17 Noroeste 0 834.5 -1.3 36
2020-03-12 13:00:00 17.5 9 Norte 19 Noroeste 0 835.2 -0.5 38
2020-03-12 12:00:00 16.6 7 Noroeste 23 Noroeste 0 835.7 0 40
2020-03-12 11:00:00 15.7 3 Noroeste 23 Sudeste 0 835.8 0.6 39
2020-03-12 10:00:00 13 4 Sudeste 15 Sudeste 0 835.7 0.9 44
2020-03-12 09:00:00 8.8 6 Sudeste 13 Sudeste 0 835.7 0.9 53
2020-03-12 08:00:00 7.8 4 Este 12 Sudeste 0 835.2 0.3 55
2020-03-12 07:00:00 7.3 8 Sudeste 12 Sudeste 0 834.8 -0.4 58
2020-03-12 06:00:00 7 8 Sudeste 13 Sudeste 0 834.8 -0.7 63
2020-03-12 05:00:00 6.9 8 Sudeste 12 Sudeste 0 834.9 -1 64
2020-03-12 04:00:00 7 8 Sudeste 14 Sudeste 0 835.2 -0.9 62
2020-03-12 03:00:00 7.3 8 Sudeste 12 Sudeste 0 835.5 -0.9 61
2020-03-12 02:00:00 7.3 7 Sudeste 12 Sudeste 0 835.9 -0.6 62
2020-03-12 01:00:00 7.6 8 Sudeste 13 Sudeste 0 836.1 -0.4 61
2020-03-12 00:00:00 7.7 8 Sudeste 14 Sudeste 0 836.4 0.2 60
2020-03-11 23:00:00 7.7 8 Sudeste 14 Sudeste 0 836.5 0.4 60
2020-03-11 22:00:00 7.8 7 Sudeste 13 Sudeste 0 836.5 0.7 62
2020-03-11 21:00:00 8.6 9 Sudeste 14 Sudeste 0 836.2 0.7 59
2020-03-11 20:00:00 9.5 6 Este 11 Sudeste 0 836.1 0.8 56
2020-03-11 19:00:00 11.4 6 Sur 19 Sur 0 835.8 0.4 51
2020-03-11 18:00:00 13.7 10 Sur 27 Sur 0 835.5 0 45
2020-03-11 17:00:00 16.1 17 Sur 28 Sur 0 835.3 -0.6 44
2020-03-11 16:00:00 18.1 13 Sur 23 Sudoeste 0 835.4 -1 35
2020-03-11 15:00:00 17.1 8 Sudeste 16 Sudeste 0 835.5 -1 36
2020-03-11 14:00:00 18.3 7 Noroeste 17 Sudeste 0 835.9 -0.6 27
2020-03-11 13:00:00 15.9 8 Sudeste 15 Sudeste 0 836.4 -0.2 32
2020-03-11 12:00:00 15.1 7 Sudeste 14 Sudeste 0 836.5 0.2 33
2020-03-11 11:00:00 13.5 5 Sudeste 8 Sudeste 0 836.5 0.7 34
2020-03-11 10:00:00 10.6 5 Sudeste 9 Sudeste 0 836.6 0.8 33
2020-03-11 09:00:00 7.4 5 Sudeste 10 Este 0 836.3 0.6 33
2020-03-11 08:00:00 6.4 6 Sudeste 10 Sudeste 0 835.8 0.2 38
2020-03-11 07:00:00 5.6 6 Sur 13 Sudoeste 0 835.8 0.3 33
2020-03-11 06:00:00 5.9 6 Sur 15 Sudoeste 0 835.7 -0.1 37
2020-03-11 05:00:00 5.6 8 Sudoeste 14 Sur 0 835.6 -0.6 42
2020-03-11 04:00:00 6.4 9 Sur 18 Sudoeste 0 835.5 -0.4 35
2020-03-11 03:00:00 6.9 10 Sudoeste 17 Sudoeste 0 835.8 -0.2 38
2020-03-11 02:00:00 8.4 9 Sur 21 Sur 0 836.2 0.2 29
2020-03-11 01:00:00 8.5 13 Sur 21 Sur 0 835.9 0 29
2020-03-11 00:00:00 6.6 4 Sudoeste 12 Oeste 0 836 0.2 42
2020-03-10 23:00:00 5.5 5 Sudoeste 9 Sudoeste 0 836 0.3 71
2020-03-10 22:00:00 5.6 5 Sudeste 12 Sudeste 0 835.9 0.7 71
2020-03-10 21:00:00 7.8 4 Este 11 Nordeste 0 835.8 0.9 62
2020-03-10 20:00:00 7 6 Sudeste 14 Sudeste 0 835.7 1.3 65
2020-03-10 19:00:00 7.9 9 Sudeste 21 Sudeste 0 835.2 0.7 61
2020-03-10 18:00:00 8.8 7 Sudeste 12 Sudeste 0 834.9 0.5 57
2020-03-10 17:00:00 11.3 5 Sudoeste 21 Noroeste 0 834.4 -0.4 52
2020-03-10 16:00:00 12.5 12 Noroeste 27 Noroeste 0 834.5 -0.7 49
2020-03-10 15:00:00 12.8 10 Norte 34 Noroeste 0 834.4 -0.4 48
2020-03-10 14:00:00 14 15 Noroeste 32 Noroeste 0 834.8 0.2 45
2020-03-10 13:00:00 13.9 12 Noroeste 28 Noroeste 0 835.2 1.1 45
2020-03-10 12:00:00 12.6 12 Noroeste 31 Noroeste 0 834.8 1.3 49
2020-03-10 11:00:00 11.9 13 Noroeste 36 Noroeste 0 834.6 1.8 50
2020-03-10 10:00:00 9.1 8 Norte 32 Noroeste 0 834.1 2 55
2020-03-10 09:00:00 8.4 10 Noroeste 33 Noroeste 0 833.5 1.5 63
2020-03-10 08:00:00 7.8 12 Noroeste 47 Noroeste 0 832.8 0.7 68
2020-03-10 07:00:00 7.5 18 Noroeste 44 Noroeste 0 832.1 0.6 68
2020-03-10 06:00:00 6.8 16 Noroeste 50 Noroeste 0 832 0.3 67
2020-03-10 05:00:00 5.8 21 Noroeste 49 Noroeste 0 832.1 -0.4 68
2020-03-10 04:00:00 4.7 10 Noroeste 44 Norte 0 831.5 -0.6 67
2020-03-10 03:00:00 2.6 10 Nordeste 32 Noroeste 0 831.7 -0.4 69
2020-03-10 02:00:00 0.8 10 Sudoeste 24 Oeste 0 832.5 0.2 70
2020-03-10 01:00:00 0.8 10 Oeste 30 Norte 0 832.1 0.2 69
2020-03-10 00:00:00 0.7 10 Noroeste 47 Norte 0 832.1 1.1 69
2020-03-09 23:00:00 0.5 9 Oeste 24 Noroeste 0 832.3 2.3 67
2020-03-09 22:00:00 0.5 8 Norte 29 Nordeste 0 831.9 2.3 67
2020-03-09 21:00:00 1.2 13 Norte 50 Noroeste 0 831 1.5 62
2020-03-09 20:00:00 2.3 22 Noroeste 62 Norte 0 830 0.8 54
2020-03-09 19:00:00 1.9 25 Noroeste 58 Noroeste 0 829.6 0 56
2020-03-09 18:00:00 2.3 24 Noroeste 56 Norte 0 829.5 -0.1 53
2020-03-09 17:00:00 4.2 24 Noroeste 56 Noroeste 0 829.2 -1.1 44
2020-03-09 16:00:00 4.3 21 Noroeste 50 Norte 0 829.6 -0.9 45
2020-03-09 15:00:00 5.4 21 Norte 44 Norte 0 829.6 -1 45
2020-03-09 14:00:00 4.7 20 Norte 45 Norte 0 830.3 0 44
2020-03-09 13:00:00 4.9 13 Norte 31 Norte 0 830.5 0.5 44
2020-03-09 12:00:00 3.5 8 Noroeste 36 Noroeste 0 830.6 0.8 53
2020-03-09 11:00:00 2.7 13 Norte 27 Noroeste 0 830.3 0.5 59
2020-03-09 10:00:00 2 12 Norte 30 Norte 0 830 0.4 62
2020-03-09 09:00:00 0.4 9 Norte 26 Norte 0 829.8 0.2 59
2020-03-09 08:00:00 0.1 11 Noroeste 37 Norte 0 829.8 0.6 58
2020-03-09 07:00:00 -0.1 13 Norte 30 Norte 0 829.6 0.3 56
2020-03-09 06:00:00 -0.1 9 Oeste 21 Sudoeste 0 829.6 -0.1 79
2020-03-09 05:00:00 0.1 6 Sudoeste 13 Sur 0 829.2 -1.2 80
2020-03-09 04:00:00 0.4 6 Sur 15 Sur 0 829.3 -1.2 77
2020-03-09 03:00:00 -0.3 4 Sudeste 11 Sudeste 0 829.7 -1.2 86
2020-03-09 02:00:00 0.2 5 Sur 11 Sudeste 0 830.4 -1 85
2020-03-09 01:00:00 0.8 6 Sudeste 10 Sudeste 0 830.5 -1.1 82
2020-03-09 00:00:00 1.2 7 Sudeste 11 Sudeste 0 830.9 -0.8 82
2020-03-08 23:00:00 1.6 7 Sudeste 11 Sudeste 0 831.4 0.1 77
2020-03-08 22:00:00 2.7 6 Este 12 Sudeste 0 831.6 0.2 76
2020-03-08 21:00:00 2.6 6 Sudeste 10 Sudeste 0 831.7 0.6 70
2020-03-08 20:00:00 4 8 Sudeste 11 Sudeste 0 831.3 0.2 69
2020-03-08 19:00:00 4.2 5 Sudeste 15 Este 0 831.4 0.1 68
2020-03-08 18:00:00 6.4 6 Este 14 Sudeste 0 831.1 -0.2 61
2020-03-08 17:00:00 10.7 4 Nordeste 16 Noroeste 0 831.1 -0.6 41
2020-03-08 16:00:00 11.2 9 Noroeste 18 Oeste 0 831.3 -1.2 27
2020-03-08 15:00:00 10.9 7 Norte 14 Noroeste 0 831.3 -1.7 28
2020-03-08 14:00:00 10.5 9 Noroeste 17 Noroeste 0 831.7 -1.2 25
2020-03-08 13:00:00 9.8 9 Noroeste 17 Noroeste 0 832.5 -0.4 17
2020-03-08 12:00:00 9.1 4 Norte 13 Noroeste 0 833 0.4 30
2020-03-08 11:00:00 6.5 3 Sudeste 8 Sudeste 0 832.9 0.6 46
2020-03-08 10:00:00 3.1 3 Sudeste 9 Sudeste 0 832.9 0.7 57
2020-03-08 09:00:00 -0.6 4 Sudeste 9 Sudeste 0 832.6 0.3 53
2020-03-08 08:00:00 -1.4 4 Sudeste 10 Sudeste 0 832.3 0.1 64
2020-03-08 07:00:00 -2 4 Sudeste 10 Sudeste 0 832.2 -0.2 74
2020-03-08 06:00:00 -1.8 5 Sudeste 11 Sudeste 0 832.3 -0.6 85
2020-03-08 05:00:00 -1.6 5 Sudeste 11 Sudeste 0 832.2 -1.3 79
2020-03-08 04:00:00 -0.9 5 Este 10 Sudeste 0 832.4 -1 80
2020-03-08 03:00:00 -1.4 5 Sur 11 Sur 0 832.9 -0.6 81
2020-03-08 02:00:00 -0.1 7 Sudoeste 19 Sudoeste 0 833.5 0.3 77
2020-03-08 01:00:00 -0.1 7 Oeste 23 Oeste 0 833.4 0.6 77
2020-03-08 00:00:00 -0.2 9 Sudoeste 18 Sudoeste 0 833.5 1.2 75
2020-03-07 23:00:00 -1.2 5 Sur 13 Sur 0 833.2 1.2 79
2020-03-07 22:00:00 -1.2 4 Sur 12 Noroeste 0 832.8 1.5 80
2020-03-07 21:00:00 -0.1 5 Sudoeste 18 Noroeste 0 832.3 1.6 75
2020-03-07 20:00:00 0.5 5 Norte 30 Norte 0 832 1.8 70
2020-03-07 19:00:00 0.9 14 Oeste 32 Noroeste 0 831.3 1 68
2020-03-07 18:00:00 1.9 17 Noroeste 39 Oeste 0 830.7 0.5 54
2020-03-07 17:00:00 3.2 17 Noroeste 40 Noroeste 0 830.2 0.2 39
2020-03-07 16:00:00 2.9 19 Noroeste 37 Noroeste 0 830.3 0 39
2020-03-07 15:00:00 2.5 18 Noroeste 47 Oeste 0 830.2 -0.1 42
2020-03-07 14:00:00 1.7 18 Noroeste 56 Oeste 0 830 0.9 46
2020-03-07 13:00:00 0.7 23 Norte 48 Norte 0 830.3 1.9 53
2020-03-07 12:00:00 0.3 17 Nordeste 40 Nordeste 0 830.3 2.8 61
2020-03-07 11:00:00 -0.1 14 Nordeste 38 Nordeste 0 829.1 2.2 65
2020-03-07 10:00:00 -1 11 Norte 36 Noroeste 0 828.4 2.2 60
2020-03-07 09:00:00 -2.4 12 Noroeste 57 Sudoeste 0 827.5 1 64
2020-03-07 08:00:00 -4.1 6 Oeste 41 Noroeste 0 826.9 1 77
2020-03-07 07:00:00 -4.9 7 Noroeste 39 Noroeste 0 826.2 0.1 82
2020-03-07 06:00:00 -5 14 Noroeste 35 Noroeste 0.6 826.5 0.1 95
2020-03-07 05:00:00 -4.9 3 Oeste 13 Nordeste 1.4 825.9 -0.7 95
2020-03-07 04:00:00 -4.9 7 Norte 18 Norte 0.2 826.1 0.6 92
2020-03-07 03:00:00 -4.6 4 Noroeste 22 Noroeste 0 826.4 1.5 82
2020-03-07 02:00:00 -4.8 4 Noroeste 38 Oeste 0 826.6 2.4 72
2020-03-07 01:00:00 -4 17 Oeste 33 Oeste 0 825.5 2.3 82
2020-03-07 00:00:00 -4.3 10 Oeste 39 Oeste 0.4 824.9 2.1 89
2020-03-06 23:00:00 -4.2 17 Oeste 35 Noroeste 0.8 824.2 1.8 95
2020-03-06 22:00:00 -4.8 8 Oeste 22 Noroeste 0.4 823.2 1.9 95
2020-03-06 21:00:00 -4.1 9 Noroeste 32 Noroeste 0 822.8 2.5 79
2020-03-06 20:00:00 -3.8 13 Noroeste 38 Norte 0 822.4 2.6 80
2020-03-06 19:00:00 -2.8 12 Oeste 36 Norte 0 821.3 1.9 70
2020-03-06 18:00:00 -1.5 14 Noroeste 38 Noroeste 0 820.3 1.2 56
2020-03-06 17:00:00 -0.5 14 Norte 31 Norte 0 819.8 0.8 49
2020-03-06 16:00:00 0.8 14 Noroeste 34 Noroeste 0 819.4 0.4 58
2020-03-06 15:00:00 1.9 15 Noroeste 31 Noroeste 0 819.1 0.2 58
2020-03-06 14:00:00 1.4 11 Noroeste 28 Norte 0 819 0.1 47
2020-03-06 13:00:00 2.2 11 Noroeste 21 Oeste 0 819 0.5 52
2020-03-06 12:00:00 1.5 9 Norte 20 Norte 0 818.9 0.4 56
2020-03-06 11:00:00 0 9 Noroeste 28 Noroeste 0 818.9 0.3 60
2020-03-06 10:00:00 0.9 4 Nordeste 15 Sudeste 0 818.5 -0.1 55
2020-03-06 09:00:00 -2.7 5 Este 10 Sudeste 0.2 818.5 -0.7 71
2020-03-06 08:00:00 -3 4 Sudeste 15 Sudoeste 0 818.6 -0.2 79
2020-03-06 07:00:00 -2 9 Sudoeste 19 Oeste 0.2 818.6 -0.8 66
2020-03-06 06:00:00 -2.9 8 Oeste 12 Oeste 0 819.2 -0.2 74
2020-03-06 05:00:00 -2.9 5 Sur 10 Sudeste 0 818.8 -0.9 76
2020-03-06 04:00:00 -3 6 Sudeste 10 Sudeste 0 819.4 -0.6 83
2020-03-06 03:00:00 -3.1 6 Sudeste 11 Sudeste 0 819.4 -0.3 63
2020-03-06 02:00:00 -2.8 4 Sudeste 12 Sudeste 0 819.7 -0.3 64
2020-03-06 01:00:00 -2.1 11 Sudeste 15 Sudeste 0 820 0.6 65
2020-03-06 00:00:00 -1 5 Oeste 21 Sudoeste 0 819.7 1.1 59
2020-03-05 23:00:00 -0.8 5 Oeste 16 Oeste 0 820 1.3 66
2020-03-05 22:00:00 -0.1 6 Este 20 Oeste 0 819.4 1.7 64
2020-03-05 21:00:00 -0.1 9 Oeste 19 Sudoeste 0 818.6 1.4 77
2020-03-05 20:00:00 0.7 6 Sudoeste 15 Norte 0 818.7 2.6 82
2020-03-05 19:00:00 1.6 4 Noroeste 26 Sudoeste 0 817.7 1.2 81
2020-03-05 18:00:00 1.1 4 Sur 39 Noroeste 1 817.2 0 92
2020-03-05 17:00:00 5.4 12 Oeste 44 Sudoeste 0 816.1 -1.8 78
2020-03-05 16:00:00 5.4 12 Oeste 36 Noroeste 1 816.5 -2.2 83
2020-03-05 15:00:00 5.7 13 Oeste 38 Oeste 0.4 817.2 -2 84
2020-03-05 14:00:00 6.4 14 Noroeste 25 Noroeste 0 817.9 -1.8 86
2020-03-05 13:00:00 6.9 16 Noroeste 37 Noroeste 0 818.7 -1.4 79
2020-03-05 12:00:00 9 10 Oeste 32 Sur 0 819.2 -2.1 67
2020-03-05 11:00:00 7.7 9 Oeste 33 Noroeste 0 819.7 -2 71
2020-03-05 10:00:00 7.2 16 Oeste 43 Oeste 0 820.1 -2 69
2020-03-05 09:00:00 6.6 21 Oeste 39 Oeste 0 821.3 -1.7 71
2020-03-05 08:00:00 4.5 6 Este 36 Oeste 0 821.7 -2.2 87
2020-03-05 07:00:00 5.8 10 Noroeste 33 Oeste 0 822.1 -2.6 74
2020-03-05 06:00:00 5.8 14 Oeste 32 Oeste 0 823 -2.6 75
2020-03-05 05:00:00 3.4 2 Este 15 Nordeste 0 823.9 -2.5 95
2020-03-05 04:00:00 3.3 4 Sudeste 10 Nordeste 0 824.7 -2.4 91
2020-03-05 03:00:00 3.3 4 Sudeste 9 Sudeste 0 825.6 -2 91
2020-03-05 02:00:00 3.1 4 Sudeste 10 Sudeste 0 826.4 -1.8 89
2020-03-05 01:00:00 3.3 6 Sudeste 11 Sudeste 0 827.1 -1.2 89
2020-03-05 00:00:00 3.6 7 Sudeste 11 Sudeste 0 827.6 -0.6 87
2020-03-04 23:00:00 3.2 6 Sudeste 10 Sudeste 0 828.2 0.1 90
2020-03-04 22:00:00 3.7 9 Sudeste 12 Este 0 828.3 0.7 88
2020-03-04 21:00:00 4 5 Sudeste 12 Sudoeste 0 828.2 0.8 86
2020-03-04 20:00:00 4.8 4 Sur 14 Noroeste 0 828.1 1 83
2020-03-04 19:00:00 5.2 2 Sur 9 Noroeste 0 827.6 0.6 83
2020-03-04 18:00:00 7.4 6 Oeste 13 Oeste 0 827.4 0.3 73
2020-03-04 17:00:00 8.5 4 Noroeste 14 Noroeste 0 827.1 0 67
2020-03-04 16:00:00 8.4 7 Noroeste 18 Noroeste 0 827 -0.4 66
2020-03-04 15:00:00 8.2 9 Noroeste 20 Noroeste 0 827.1 -0.7 66
2020-03-04 14:00:00 8.6 5 Noroeste 22 Norte 0 827.1 -0.3 63
2020-03-04 13:00:00 7.8 9 Noroeste 30 Oeste 0 827.4 -0.2 66
2020-03-04 12:00:00 7.1 6 Norte 12 Noroeste 0 827.8 1.1 57
2020-03-04 11:00:00 6.4 4 Nordeste 15 Nordeste 0 827.4 1.2 43
2020-03-04 10:00:00 3.8 5 Nordeste 17 Nordeste 0 827.6 1.7 43
2020-03-04 09:00:00 1 7 Sudeste 14 Sudeste 0 826.7 1.1 48
2020-03-04 08:00:00 -1 5 Sudeste 10 Sur 0 826.2 1.1 65
2020-03-04 07:00:00 -1 6 Sudoeste 13 Sudoeste 0 825.9 0.8 62
2020-03-04 06:00:00 -0.7 5 Sudoeste 16 Sudoeste 0 825.6 0.3 57
2020-03-04 05:00:00 -0.5 10 Sudoeste 19 Oeste 0 825.1 0 58
2020-03-04 04:00:00 -1.4 7 Sudoeste 22 Sudoeste 0 825.1 0 64
2020-03-04 03:00:00 -1.5 6 Sudoeste 32 Norte 0 825.3 1 74
2020-03-04 02:00:00 -1.6 6 Nordeste 26 Noroeste 0 825.1 1.3 71
2020-03-04 01:00:00 -2.3 6 Norte 19 Norte 0 825.1 2.7 86
2020-03-04 00:00:00 -1.9 10 Oeste 24 Noroeste 0 824.3 3.2 95